createdAt,value
2018-01-13T00:01:51.550Z,164.43
2018-01-13T00:04:19.020Z,153.73
2018-01-13T00:06:46.500Z,158.60
2018-01-13T00:09:14.741Z,154.53
2018-01-13T00:11:42.217Z,134.67
2018-01-13T00:14:09.700Z,131.87
2018-01-13T00:16:37.193Z,166.03
2018-01-13T00:19:04.664Z,130.13
2018-01-13T00:21:32.190Z,112.80
2018-01-13T00:23:59.661Z,133.80
2018-01-13T00:26:27.152Z,129.57
2018-01-13T00:28:54.672Z,120.43
2018-01-13T00:31:22.149Z,118.53
2018-01-13T00:33:49.657Z,117.30
2018-01-13T00:36:17.919Z,107.50
2018-01-13T00:38:45.406Z,103.13
2018-01-13T00:41:12.875Z,109.87
2018-01-13T00:43:40.373Z,99.60
2018-01-13T00:46:07.839Z,94.00
2018-01-13T00:48:35.313Z,93.97
2018-01-13T00:51:02.807Z,97.47
2018-01-13T00:53:30.276Z,91.57
2018-01-13T00:55:57.769Z,94.73
2018-01-13T00:58:25.240Z,115.63
2018-01-13T01:00:52.723Z,92.13
2018-01-13T01:03:20.965Z,105.40
2018-01-13T01:05:48.440Z,84.40
2018-01-13T01:08:15.918Z,93.63
2018-01-13T01:10:44.186Z,88.67
2018-01-13T01:13:12.425Z,96.63
2018-01-13T01:15:39.899Z,91.63
2018-01-13T01:18:07.373Z,84.67
2018-01-13T01:20:35.609Z,83.53
2018-01-13T01:23:03.082Z,93.37
2018-01-13T01:25:30.548Z,82.60
2018-01-13T01:27:58.025Z,88.93
2018-01-13T01:30:26.256Z,77.23
2018-01-13T01:32:53.740Z,73.67
2018-01-13T01:35:21.211Z,84.30
2018-01-13T01:37:48.698Z,76.63
2018-01-13T01:40:16.195Z,73.93
2018-01-13T01:42:43.664Z,79.70
2018-01-13T01:45:11.140Z,77.93
2018-01-13T01:47:38.620Z,82.33
2018-01-13T01:50:06.865Z,79.53
2018-01-13T01:52:34.328Z,80.43
2018-01-13T01:55:01.823Z,81.23
2018-01-13T01:57:29.293Z,85.87
2018-01-13T01:59:56.773Z,70.10
2018-01-13T02:02:24.259Z,77.83
2018-01-13T02:04:51.753Z,74.30
2018-01-13T02:07:19.236Z,73.77
2018-01-13T02:09:46.713Z,66.63
2018-01-13T02:12:14.461Z,77.93
2018-01-13T02:14:41.929Z,67.57
2018-01-13T02:17:09.406Z,73.10
2018-01-13T02:19:36.879Z,66.70
2018-01-13T02:22:04.353Z,64.93
2018-01-13T02:24:32.596Z,66.77
2018-01-13T02:27:00.077Z,61.10
2018-01-13T02:29:27.545Z,62.47
2018-01-13T02:31:55.776Z,63.07
2018-01-13T02:34:23.526Z,61.37
2018-01-13T02:36:51.000Z,67.03
2018-01-13T02:39:18.484Z,60.90
2018-01-13T02:41:45.953Z,64.23
2018-01-13T02:44:13.424Z,108.63
2018-01-13T02:46:41.665Z,67.70
2018-01-13T02:49:09.136Z,64.07
2018-01-13T02:51:36.608Z,64.10
2018-01-13T02:54:04.080Z,63.90
2018-01-13T02:56:32.318Z,60.63
2018-01-13T02:58:59.801Z,61.57
2018-01-13T03:01:27.261Z,64.63
2018-01-13T03:03:55.496Z,59.97
2018-01-13T03:06:22.973Z,58.63
2018-01-13T03:08:50.436Z,59.50
2018-01-13T03:11:17.919Z,57.40
2018-01-13T03:13:46.153Z,61.77
2018-01-13T03:16:13.629Z,57.10
2018-01-13T03:18:41.096Z,62.93
2018-01-13T03:21:08.567Z,58.00
2018-01-13T03:23:36.808Z,62.67
2018-01-13T03:26:04.288Z,55.47
2018-01-13T03:28:31.755Z,60.47
2018-01-13T03:30:59.997Z,60.90
2018-01-13T03:33:27.491Z,53.37
2018-01-13T03:35:55.729Z,55.47
2018-01-13T03:38:23.200Z,54.83
2018-01-13T03:40:50.664Z,57.67
2018-01-13T03:43:18.148Z,53.23
2018-01-13T03:45:46.388Z,49.20
2018-01-13T03:48:13.864Z,56.40
2018-01-13T03:50:41.335Z,54.37
2018-01-13T03:53:09.581Z,61.77
2018-01-13T03:55:37.049Z,56.13
2018-01-13T03:58:04.530Z,53.23
2018-01-13T04:00:32.760Z,52.60
2018-01-13T04:03:00.229Z,61.67
2018-01-13T04:05:27.708Z,52.27
2018-01-13T04:07:55.181Z,52.30
2018-01-13T04:10:22.681Z,58.80
2018-01-13T04:12:50.153Z,66.90
2018-01-13T04:15:17.637Z,56.53
2018-01-13T04:17:45.103Z,50.43
2018-01-13T04:20:12.576Z,47.73
2018-01-13T04:22:40.812Z,46.93
2018-01-13T04:25:08.280Z,51.50
2018-01-13T04:27:35.747Z,55.30
2018-01-13T04:30:03.464Z,47.80
2018-01-13T04:32:30.944Z,51.90
2018-01-13T04:34:58.404Z,54.37
2018-01-13T04:37:25.885Z,50.73
2018-01-13T04:39:53.356Z,51.30
2018-01-13T04:42:21.592Z,47.73
2018-01-13T04:44:49.068Z,52.00
2018-01-13T04:47:16.552Z,49.23
2018-01-13T04:49:44.785Z,48.97
2018-01-13T04:52:12.272Z,47.50
2018-01-13T04:54:39.751Z,53.20
2018-01-13T04:57:07.990Z,50.20
2018-01-13T04:59:35.456Z,57.30
2018-01-13T05:02:02.940Z,55.47
2018-01-13T05:04:31.175Z,47.57
2018-01-13T05:06:58.645Z,52.90
2018-01-13T05:09:26.121Z,47.97
2018-01-13T05:11:53.592Z,51.13
2018-01-13T05:14:21.835Z,50.07
2018-01-13T05:16:49.296Z,50.70
2018-01-13T05:19:16.779Z,56.87
2018-01-13T05:21:45.021Z,50.43
2018-01-13T05:24:12.500Z,55.80
2018-01-13T05:26:39.972Z,46.70
2018-01-13T05:29:08.216Z,42.50
2018-01-13T05:31:35.684Z,42.93
2018-01-13T05:34:03.160Z,46.77
2018-01-13T05:36:31.401Z,45.90
2018-01-13T05:38:58.896Z,41.67
2018-01-13T05:41:26.364Z,49.30
2018-01-13T05:43:54.607Z,43.27
2018-01-13T05:46:22.080Z,38.90
2018-01-13T05:48:49.548Z,39.43
2018-01-13T05:51:17.792Z,41.87
2018-01-13T05:53:45.256Z,37.13
2018-01-13T05:56:12.732Z,42.40
2018-01-13T05:58:40.199Z,40.63
2018-01-13T06:01:08.448Z,41.53
2018-01-13T06:03:35.918Z,43.40
2018-01-13T06:06:03.384Z,39.90
2018-01-13T06:08:30.858Z,39.60
2018-01-13T06:10:59.101Z,38.17
2018-01-13T06:13:26.576Z,35.33
2018-01-13T06:15:54.088Z,32.27
2018-01-13T06:18:21.561Z,27.40
2018-01-13T06:20:49.032Z,28.23
2018-01-13T06:23:16.512Z,29.30
2018-01-13T06:25:43.977Z,26.77
2018-01-13T06:28:11.448Z,27.90
2018-01-13T06:30:39.709Z,29.77
2018-01-13T06:33:07.180Z,25.67
2018-01-13T06:35:35.416Z,24.30
2018-01-13T06:38:02.887Z,26.63
2018-01-13T06:40:30.357Z,58.40
2018-01-13T06:42:57.840Z,37.20
2018-01-13T06:45:26.075Z,24.87
2018-01-13T06:47:53.549Z,26.20
2018-01-13T06:50:21.024Z,24.77
2018-01-13T06:52:49.264Z,23.80
2018-01-13T06:55:16.743Z,25.47
2018-01-13T06:57:44.212Z,26.87
2018-01-13T07:00:12.476Z,25.37
2018-01-13T07:02:39.946Z,27.83
2018-01-13T07:05:08.185Z,26.67
2018-01-13T07:07:35.658Z,27.17
2018-01-13T07:10:03.126Z,25.30
2018-01-13T07:12:30.599Z,26.83
2018-01-13T07:14:58.848Z,25.17
2018-01-13T07:17:26.317Z,28.40
2018-01-13T07:19:53.808Z,26.60
2018-01-13T07:22:21.282Z,29.13
2018-01-13T07:24:48.748Z,27.20
2018-01-13T07:27:16.236Z,26.40
2018-01-13T07:29:43.691Z,30.67
2018-01-13T07:32:11.428Z,27.43
2018-01-13T07:34:38.900Z,29.40
2018-01-13T07:37:06.376Z,28.27
2018-01-13T07:39:33.848Z,29.03
2018-01-13T07:42:01.326Z,33.43
2018-01-13T07:44:29.561Z,29.83
2018-01-13T07:46:57.036Z,30.37
2018-01-13T07:49:24.513Z,28.07
2018-01-13T07:51:52.800Z,29.30
2018-01-13T07:54:21.036Z,31.37
2018-01-13T07:56:48.512Z,29.73
2018-01-13T07:59:15.984Z,29.00
2018-01-13T08:01:44.235Z,29.73
2018-01-13T08:04:11.703Z,33.57
2018-01-13T08:06:39.173Z,30.93
2018-01-13T08:09:07.422Z,34.33
2018-01-13T08:11:34.889Z,29.13
2018-01-13T08:14:02.360Z,32.87
2018-01-13T08:16:29.832Z,35.27
2018-01-13T08:18:58.079Z,32.00
2018-01-13T08:21:25.549Z,31.10
2018-01-13T08:23:53.053Z,29.50
2018-01-13T08:26:20.520Z,31.23
2018-01-13T08:28:47.995Z,25.30
2018-01-13T08:31:15.472Z,29.80
2018-01-13T08:33:42.970Z,29.67
2018-01-13T08:36:10.416Z,33.07
2018-01-13T08:38:38.662Z,25.47
2018-01-13T08:41:06.132Z,27.67
2018-01-13T08:43:33.609Z,29.07
2018-01-13T08:46:01.856Z,30.57
2018-01-13T08:48:29.328Z,28.43
2018-01-13T08:50:56.794Z,25.07
2018-01-13T08:53:24.265Z,28.37
2018-01-13T08:55:52.504Z,27.77
2018-01-13T08:58:19.989Z,25.83
2018-01-13T09:00:48.221Z,25.67
2018-01-13T09:03:15.696Z,23.03
2018-01-13T09:05:43.169Z,25.53
2018-01-13T09:08:10.640Z,27.23
2018-01-13T09:10:38.113Z,20.90
2018-01-13T09:13:05.590Z,25.90
2018-01-13T09:15:33.056Z,19.57
2018-01-13T09:18:00.532Z,21.87
2018-01-13T09:20:28.000Z,22.33
2018-01-13T09:22:55.475Z,21.53
2018-01-13T09:25:22.954Z,23.27
2018-01-13T09:27:51.192Z,20.47
2018-01-13T09:30:18.668Z,21.33
2018-01-13T09:32:46.141Z,22.13
2018-01-13T09:35:14.385Z,19.17
2018-01-13T09:37:41.860Z,20.60
2018-01-13T09:40:09.340Z,24.00
2018-01-13T09:42:37.571Z,20.80
2018-01-13T09:45:05.059Z,19.70
2018-01-13T09:47:33.137Z,23.10
2018-01-13T09:50:00.608Z,19.40
2018-01-13T09:52:28.865Z,18.63
2018-01-13T09:54:56.332Z,21.00
2018-01-13T09:57:24.575Z,19.87
2018-01-13T09:59:52.044Z,17.87
2018-01-13T10:02:19.520Z,17.20
2018-01-13T10:04:47.001Z,21.20
2018-01-13T10:07:15.229Z,19.03
2018-01-13T10:09:42.705Z,16.87
2018-01-13T10:12:10.172Z,19.67
2018-01-13T10:14:37.649Z,15.00
2018-01-13T10:17:05.883Z,15.63
2018-01-13T10:19:33.364Z,13.83
2018-01-13T10:22:00.838Z,10.97
2018-01-13T10:24:29.077Z,15.00
2018-01-13T10:26:56.545Z,14.83
2018-01-13T10:29:24.019Z,12.83
2018-01-13T10:31:52.262Z,15.90
2018-01-13T10:34:19.729Z,14.07
2018-01-13T10:36:47.196Z,12.90
2018-01-13T10:39:14.669Z,14.30
2018-01-13T10:41:42.135Z,15.07
2018-01-13T10:44:10.373Z,14.10
2018-01-13T10:46:38.108Z,12.87
2018-01-13T10:49:05.587Z,14.53
2018-01-13T10:51:33.066Z,14.10
2018-01-13T10:54:00.533Z,14.70
2018-01-13T10:56:28.008Z,18.60
2018-01-13T10:58:56.247Z,14.77
2018-01-13T11:01:23.712Z,16.10
2018-01-13T11:03:52.001Z,16.73
2018-01-13T11:06:19.463Z,15.77
2018-01-13T11:08:46.937Z,20.13
2018-01-13T11:11:15.168Z,15.07
2018-01-13T11:13:42.642Z,14.90
2018-01-13T11:16:10.104Z,16.93
2018-01-13T11:18:37.582Z,14.90
2018-01-13T11:21:05.816Z,14.53
2018-01-13T11:23:33.310Z,146.20
2018-01-13T11:26:00.785Z,21.90
2018-01-13T11:28:29.016Z,19.60
2018-01-13T11:30:56.495Z,14.60
2018-01-13T11:33:23.964Z,12.93
2018-01-13T11:35:52.200Z,14.63
2018-01-13T11:38:19.669Z,13.27
2018-01-13T11:40:47.140Z,15.77
2018-01-13T11:43:14.616Z,12.80
2018-01-13T11:45:42.874Z,12.43
2018-01-13T11:48:10.352Z,13.93
2018-01-13T11:50:37.816Z,18.03
2018-01-13T11:53:06.052Z,15.10
2018-01-13T11:55:33.513Z,13.73
2018-01-13T11:58:00.984Z,11.83
2018-01-13T12:00:28.445Z,12.47
2018-01-13T12:02:55.928Z,10.40
2018-01-13T12:05:24.155Z,11.47
2018-01-13T12:07:51.637Z,13.03
2018-01-13T12:10:19.104Z,12.90
2018-01-13T12:12:46.576Z,11.47
2018-01-13T12:15:14.811Z,10.80
2018-01-13T12:17:42.300Z,11.90
2018-01-13T12:20:09.773Z,14.83
2018-01-13T12:22:38.020Z,10.97
2018-01-13T12:25:05.498Z,12.17
2018-01-13T12:27:33.731Z,9.30
2018-01-13T12:30:01.972Z,13.53
2018-01-13T12:32:29.872Z,13.00
2018-01-13T12:34:57.346Z,17.67
2018-01-13T12:37:24.812Z,10.97
2018-01-13T12:39:52.281Z,11.43
2018-01-13T12:42:19.748Z,11.77
2018-01-13T12:44:48.001Z,10.20
2018-01-13T12:47:15.464Z,15.47
2018-01-13T12:49:42.942Z,12.40
2018-01-13T12:52:11.185Z,17.73
2018-01-13T12:54:38.655Z,18.47
2018-01-13T12:57:06.181Z,13.87
2018-01-13T12:59:34.365Z,11.03
2018-01-13T13:02:02.121Z,11.23
2018-01-13T13:04:29.588Z,13.10
2018-01-13T13:06:57.064Z,14.30
2018-01-13T13:09:24.530Z,10.47
2018-01-13T13:11:52.004Z,12.37
2018-01-13T13:14:20.246Z,13.80
2018-01-13T13:16:47.720Z,13.73
2018-01-13T13:19:15.186Z,14.13
2018-01-13T13:21:42.664Z,15.13
2018-01-13T13:24:10.905Z,16.50
2018-01-13T13:26:38.387Z,13.90
2018-01-13T13:29:05.869Z,13.20
2018-01-13T13:31:34.088Z,10.20
2018-01-13T13:34:01.561Z,13.13
2018-01-13T13:36:29.036Z,12.63
2018-01-13T13:38:56.516Z,13.80
2018-01-13T13:41:24.753Z,13.10
2018-01-13T13:43:52.225Z,13.13
2018-01-13T13:46:19.688Z,11.20
2018-01-13T13:48:47.163Z,15.83
2018-01-13T13:51:15.396Z,15.70
2018-01-13T13:53:42.872Z,13.87
2018-01-13T13:56:10.340Z,11.00
2018-01-13T13:58:37.814Z,18.17
2018-01-13T14:01:28.368Z,13.10
2018-01-13T14:03:33.532Z,13.40
2018-01-13T14:06:00.996Z,11.90
2018-01-13T14:08:29.260Z,14.03
2018-01-13T14:10:56.722Z,11.03
2018-01-13T14:13:24.192Z,12.33
2018-01-13T14:15:51.668Z,13.77
2018-01-13T14:18:19.142Z,13.70
2018-01-13T14:20:46.614Z,12.27
2018-01-13T14:23:14.850Z,13.40
2018-01-13T14:25:43.096Z,11.83
2018-01-13T14:28:10.572Z,10.50
2018-01-13T14:30:38.036Z,11.10
2018-01-13T14:33:06.276Z,11.97
2018-01-13T14:35:33.739Z,11.40
2018-01-13T14:38:01.215Z,11.90
2018-01-13T14:40:28.672Z,12.03
2018-01-13T14:42:56.144Z,12.50
2018-01-13T14:45:24.372Z,13.90
2018-01-13T14:47:51.853Z,11.73
2018-01-13T14:50:19.324Z,10.53
2018-01-13T14:52:46.796Z,13.03
2018-01-13T14:55:15.044Z,12.77
2018-01-13T14:57:43.087Z,14.37
2018-01-13T15:00:10.552Z,13.47
2018-01-13T15:02:38.028Z,12.60
2018-01-13T15:05:05.497Z,11.50
2018-01-13T15:07:32.960Z,11.90
2018-01-13T15:10:00.436Z,12.73
2018-01-13T15:12:28.811Z,11.47
2018-01-13T15:14:56.272Z,14.30
2018-01-13T15:17:24.508Z,14.43
2018-01-13T15:19:51.975Z,13.03
2018-01-13T15:22:19.448Z,15.07
2018-01-13T15:24:46.912Z,13.47
2018-01-13T15:27:14.385Z,12.67
2018-01-13T15:29:42.613Z,15.50
2018-01-13T15:32:10.360Z,12.83
2018-01-13T15:34:37.829Z,15.27
2018-01-13T15:37:05.300Z,15.93
2018-01-13T15:39:32.769Z,16.77
2018-01-13T15:42:00.232Z,14.77
2018-01-13T15:44:27.729Z,14.30
2018-01-13T15:46:55.192Z,14.33
2018-01-13T15:49:22.656Z,15.60
2018-01-13T15:51:50.137Z,17.30
2018-01-13T15:54:17.605Z,17.33
2018-01-13T15:56:45.076Z,14.40
2018-01-13T15:59:12.548Z,17.37
2018-01-13T16:01:40.029Z,16.33
2018-01-13T16:04:08.264Z,16.13
2018-01-13T16:06:35.756Z,17.90
2018-01-13T16:09:04.002Z,17.53
2018-01-13T16:11:31.510Z,21.40
2018-01-13T16:13:59.031Z,18.10
2018-01-13T16:16:26.505Z,17.63
2018-01-13T16:18:53.983Z,18.60
2018-01-13T16:21:21.457Z,18.60
2018-01-13T16:23:48.933Z,18.00
2018-01-13T16:26:17.180Z,22.67
2018-01-13T16:28:44.644Z,16.73
2018-01-13T16:31:12.125Z,56.23
2018-01-13T16:33:39.597Z,20.80
2018-01-13T16:36:07.068Z,19.93
2018-01-13T16:38:34.588Z,23.83
2018-01-13T16:41:02.103Z,21.67
2018-01-13T16:43:29.614Z,20.93
2018-01-13T16:45:57.076Z,19.17
2018-01-13T16:48:24.547Z,24.07
2018-01-13T16:50:52.024Z,20.00
2018-01-13T16:53:19.505Z,23.27
2018-01-13T16:55:47.732Z,24.20
2018-01-13T16:58:15.208Z,25.63
2018-01-13T17:00:42.684Z,25.97
2018-01-13T17:03:10.157Z,27.57
2018-01-13T17:05:38.517Z,24.53
2018-01-13T17:08:06.004Z,23.70
2018-01-13T17:10:34.240Z,27.90
2018-01-13T17:13:01.763Z,23.63
2018-01-13T17:15:29.232Z,22.63
2018-01-13T17:17:56.700Z,23.60
2018-01-13T17:20:24.185Z,22.60
2018-01-13T17:22:51.652Z,23.63
2018-01-13T17:25:19.166Z,23.63
2018-01-13T17:27:46.632Z,23.10
2018-01-13T17:30:14.194Z,24.13
2018-01-13T17:32:41.705Z,25.23
2018-01-13T17:35:09.954Z,22.80
2018-01-13T17:37:37.425Z,23.37
2018-01-13T17:40:04.892Z,22.00
2018-01-13T17:42:33.174Z,21.77
2018-01-13T17:45:01.446Z,25.17
2018-01-13T17:47:29.742Z,25.57
2018-01-13T17:49:57.963Z,24.90
2018-01-13T17:52:25.463Z,24.20
2018-01-13T17:54:52.922Z,29.20
2018-01-13T17:57:21.218Z,22.37
2018-01-13T17:59:48.688Z,24.13
2018-01-13T18:02:16.155Z,24.60
2018-01-13T18:04:43.674Z,25.03
2018-01-13T18:07:12.064Z,26.23
2018-01-13T18:09:39.586Z,24.03
2018-01-13T18:12:07.052Z,20.93
2018-01-13T18:14:34.616Z,23.90
2018-01-13T18:17:02.136Z,26.53
2018-01-13T18:19:48.364Z,25.07
2018-01-13T18:22:15.829Z,54.97
2018-01-13T18:24:43.304Z,26.87
2018-01-13T18:27:11.546Z,28.80
2018-01-13T18:29:39.202Z,31.57
2018-01-13T18:32:06.677Z,22.90
2018-01-13T18:34:34.158Z,23.87
2018-01-13T18:37:02.399Z,21.73
2018-01-13T18:39:29.868Z,23.57
2018-01-13T18:41:57.344Z,22.40
2018-01-13T18:44:25.627Z,22.10
2018-01-13T18:46:53.914Z,19.80
2018-01-13T18:49:22.144Z,21.47
2018-01-13T18:51:49.883Z,29.03
2018-01-13T18:54:17.396Z,24.17
2018-01-13T18:56:44.905Z,23.10
2018-01-13T18:59:12.417Z,22.50
2018-01-13T19:01:40.405Z,18.27
2018-01-13T19:04:07.886Z,20.87
2018-01-13T19:06:35.360Z,20.90
2018-01-13T19:09:02.891Z,19.93
2018-01-13T19:11:30.399Z,17.30
2018-01-13T19:13:57.860Z,19.60
2018-01-13T19:16:25.336Z,20.23
2018-01-13T19:18:52.843Z,22.33
2018-01-13T19:21:20.614Z,18.97
2018-01-13T19:23:48.119Z,19.17
2018-01-13T19:26:15.639Z,20.30
2018-01-13T19:28:43.101Z,20.43
2018-01-13T19:31:10.575Z,23.50
2018-01-13T19:33:38.095Z,19.40
2018-01-13T19:36:05.624Z,22.50
2018-01-13T19:38:33.887Z,20.03
2018-01-13T19:41:01.400Z,20.73
2018-01-13T19:43:28.902Z,24.10
2018-01-13T19:45:56.415Z,18.63
2018-01-13T19:48:23.892Z,21.93
2018-01-13T19:50:51.406Z,23.17
2018-01-13T19:53:19.683Z,21.67
2018-01-13T19:55:47.988Z,19.23
2018-01-13T19:58:15.503Z,23.07
2018-01-13T20:00:42.969Z,21.53
2018-01-13T20:03:11.296Z,21.00
2018-01-13T20:05:39.581Z,19.27
2018-01-13T20:08:07.109Z,21.23
2018-01-13T20:10:34.623Z,24.00
2018-01-13T20:13:02.140Z,17.90
2018-01-13T20:15:29.665Z,21.27
2018-01-13T20:17:57.943Z,23.03
2018-01-13T20:20:26.227Z,22.53
2018-01-13T20:22:53.753Z,21.83
2018-01-13T20:25:21.273Z,17.37
2018-01-13T20:27:48.808Z,20.33
2018-01-13T20:30:16.315Z,21.23
2018-01-13T20:32:44.168Z,19.73
2018-01-13T20:35:11.674Z,25.23
2018-01-13T20:37:39.962Z,22.53
2018-01-13T20:40:08.245Z,18.63
2018-01-13T20:42:36.532Z,18.43
2018-01-13T20:45:03.998Z,22.37
2018-01-13T20:47:31.531Z,21.33
2018-01-13T20:49:59.820Z,25.13
2018-01-13T20:52:27.297Z,21.93
2018-01-13T20:54:54.813Z,18.67
2018-01-13T20:57:22.350Z,22.27
2018-01-13T20:59:49.872Z,22.83
2018-01-13T21:02:17.388Z,22.27
2018-01-13T21:04:44.910Z,23.90
2018-01-13T21:07:12.453Z,21.10
2018-01-13T21:09:39.968Z,17.93
2018-01-13T21:12:07.490Z,21.83
2018-01-13T21:14:35.010Z,20.90
2018-01-13T21:17:03.278Z,19.87
2018-01-13T21:19:31.572Z,20.93
2018-01-13T21:21:59.079Z,19.87
2018-01-13T21:24:26.573Z,21.70
2018-01-13T21:26:54.859Z,20.30
2018-01-13T21:29:23.136Z,20.97
2018-01-13T21:31:51.424Z,21.77
2018-01-13T21:34:18.939Z,22.50
2018-01-13T21:36:46.459Z,22.17
2018-01-13T21:39:13.967Z,22.77
2018-01-13T21:41:41.494Z,22.27
2018-01-13T21:44:09.007Z,20.90
2018-01-13T21:46:37.283Z,20.03
2018-01-13T21:49:05.564Z,21.17
2018-01-13T21:51:33.100Z,19.83
2018-01-13T21:54:00.564Z,22.93
2018-01-13T21:56:28.862Z,22.60
2018-01-13T21:58:57.131Z,22.50
2018-01-13T22:01:25.534Z,21.77
2018-01-13T22:03:53.056Z,21.97
2018-01-13T22:06:20.594Z,20.97
2018-01-13T22:08:48.091Z,19.57
2018-01-13T22:11:16.361Z,17.93
2018-01-13T22:13:44.647Z,21.17
2018-01-13T22:16:12.926Z,20.20
2018-01-13T22:18:41.194Z,20.43
2018-01-13T22:21:09.424Z,18.50
2018-01-13T22:23:37.025Z,18.57
2018-01-13T22:26:04.492Z,22.30
2018-01-13T22:28:32.770Z,21.47
2018-01-13T22:31:01.082Z,20.60
2018-01-13T22:33:28.599Z,20.97
2018-01-13T22:35:56.844Z,18.13
2018-01-13T22:38:24.359Z,19.00
2018-01-13T22:40:51.841Z,18.60
2018-01-13T22:43:19.359Z,18.43
2018-01-13T22:45:47.646Z,22.03
2018-01-13T22:48:15.872Z,22.27
2018-01-13T22:50:43.421Z,23.97
2018-01-13T22:53:10.884Z,20.67
2018-01-13T22:55:39.173Z,19.80
2018-01-13T22:58:06.696Z,20.67
2018-01-13T23:00:39.948Z,19.10
2018-01-13T23:03:07.472Z,23.40
2018-01-13T23:05:34.974Z,21.63
2018-01-13T23:08:03.506Z,20.43
2018-01-13T23:10:31.023Z,21.53
2018-01-13T23:12:59.259Z,24.10
2018-01-13T23:15:26.835Z,21.27
2018-01-13T23:17:54.360Z,20.93
2018-01-13T23:20:21.868Z,24.73
2018-01-13T23:22:50.096Z,22.80
2018-01-13T23:25:18.336Z,26.80
2018-01-13T23:27:45.809Z,22.63
2018-01-13T23:30:13.325Z,24.47
2018-01-13T23:32:40.822Z,20.60
2018-01-13T23:35:08.298Z,21.03
2018-01-13T23:37:35.807Z,19.20
2018-01-13T23:40:03.281Z,22.53
2018-01-13T23:42:31.562Z,24.23
2018-01-13T23:44:59.802Z,22.57
2018-01-13T23:47:27.306Z,23.73
2018-01-13T23:49:54.814Z,19.07
2018-01-13T23:52:22.280Z,21.00
2018-01-13T23:54:49.810Z,21.87
2018-01-13T23:57:17.272Z,18.23
2018-01-13T23:59:44.798Z,24.33
